createdAt,value
2023-09-11T00:02:26.017Z,21.570672976090602
2023-09-11T00:06:04.030Z,21.5559170511745
2023-09-11T00:12:14.462Z,21.5364578963926
2023-09-11T00:15:33.948Z,21.512425283137574
2023-09-11T00:18:53.989Z,21.499643456375836
2023-09-11T00:22:13.976Z,21.488159343540264
2023-09-11T00:26:49.103Z,21.485169358221466
2023-09-11T00:30:08.956Z,21.471307414010045
2023-09-11T00:33:29.144Z,21.44935114303689
2023-09-11T00:36:49.126Z,21.436109217701333
2023-09-11T00:40:08.787Z,21.42416238464765
2023-09-11T00:47:53.131Z,21.397571046560397
2023-09-11T00:51:12.771Z,21.379712405620815
2023-09-11T00:54:31.525Z,21.36158373531883
2023-09-11T00:57:50.609Z,21.33756554110739
2023-09-11T01:01:10.177Z,21.32317140310403
2023-09-11T01:04:30.255Z,21.30963454278524
2023-09-11T01:10:12.875Z,21.28604105494966
2023-09-11T01:13:32.507Z,21.272592019714782
2023-09-11T01:16:52.702Z,21.25777710780204
2023-09-11T01:20:13.010Z,21.24791317114093
2023-09-11T01:23:32.639Z,21.231090079698006
2023-09-11T01:26:52.516Z,21.20285103817114
2023-09-11T01:30:11.730Z,21.20114959102349
2023-09-11T01:37:52.966Z,21.189620910234915
2023-09-11T01:43:35.208Z,21.19390336619131
2023-09-11T01:46:54.300Z,21.180618183724807
2023-09-11T01:50:14.161Z,21.167651531040256
2023-09-11T01:53:33.576Z,21.156793991191257
2023-09-11T01:56:54.036Z,21.148434878355697
2023-09-11T02:00:14.252Z,21.132959312080523
2023-09-11T02:03:34.278Z,21.12925099622483
2023-09-11T02:06:54.219Z,21.1145003145973
2023-09-11T02:11:50.617Z,21.09936031879192
2023-09-11T02:15:10.113Z,21.08760486577181
2023-09-11T02:18:29.951Z,21.073437499999997
2023-09-11T02:21:49.272Z,21.063907822986582
2023-09-11T02:25:08.949Z,21.05612022860738
2023-09-11T02:28:28.953Z,21.04096712458053
2023-09-11T02:31:51.799Z,21.03132864932884
2023-09-11T02:35:11.655Z,21.01778654572146
2023-09-11T02:38:31.556Z,21.00747824035234
2023-09-11T02:47:57.975Z,20.993356753355716
2023-09-11T02:51:17.932Z,20.9909382864933
2023-09-11T02:56:31.601Z,20.976200713087266
2023-09-11T02:59:51.568Z,20.971060979446307
2023-09-11T03:03:11.577Z,20.958481019295316
2023-09-11T03:06:31.639Z,20.94016227978188
2023-09-11T03:09:51.526Z,20.927286073825503
2023-09-11T03:13:11.444Z,20.90937106753356
2023-09-11T03:16:31.153Z,20.893681837248327
2023-09-11T03:19:50.653Z,20.879638999580543
2023-09-11T03:26:55.991Z,20.840884542785236
2023-09-11T03:30:15.596Z,20.832537227349007
2023-09-11T03:36:15.511Z,20.812701866610745
2023-09-11T03:39:52.820Z,20.802873322147654
2023-09-11T03:43:12.087Z,20.790364146392616
2023-09-11T03:46:32.116Z,20.774263317953025
2023-09-11T03:53:49.761Z,20.758340761325496
2023-09-11T03:57:09.207Z,20.754404362416107
2023-09-11T04:00:28.683Z,20.749579226090617
2023-09-11T04:03:48.084Z,20.745468487835574
2023-09-11T04:07:07.654Z,20.73314413800336
2023-09-11T04:11:50.260Z,20.735567848154353
2023-09-11T04:16:35.289Z,20.72254745176175
2023-09-11T04:21:42.331Z,20.70392591233222
2023-09-11T04:25:02.168Z,20.689377097315464
2023-09-11T04:28:41.280Z,20.664869966442957
2023-09-11T04:32:01.341Z,20.65228476300335
2023-09-11T04:35:20.979Z,20.635854918204675
2023-09-11T04:38:40.991Z,20.634021078020112
2023-09-11T04:42:00.805Z,20.621152736996617
2023-09-11T04:45:20.753Z,20.61732251468119
2023-09-11T04:48:39.937Z,20.602591495385898
2023-09-11T04:51:59.726Z,20.586650587248325
2023-09-11T04:55:19.510Z,20.580536912751676
2023-09-11T04:59:26.441Z,20.57140048238253
2023-09-11T05:02:46.495Z,20.56503775167784
2023-09-11T05:06:06.286Z,20.54838113464764
2023-09-11T05:09:25.968Z,20.53898385067112
2023-09-11T05:12:45.327Z,20.53473678691272
2023-09-11T05:16:05.655Z,20.531276216442937
2023-09-11T05:19:25.215Z,20.53421507969797
2023-09-11T05:22:50.100Z,20.53210858850669
2023-09-11T05:26:09.969Z,20.527848416526833
2023-09-11T05:29:29.811Z,20.511463139681197
2023-09-11T05:32:49.515Z,20.49673605285233
2023-09-11T05:36:09.412Z,20.488370385906027
2023-09-11T05:39:29.003Z,20.481398122902668
2023-09-11T05:42:50.056Z,20.465395606124154
2023-09-11T05:46:09.112Z,20.453952128775146
2023-09-11T05:49:28.956Z,20.447142407718104
2023-09-11T05:52:49.314Z,20.44537935192952
2023-09-11T05:56:08.950Z,20.44520239093959
2023-09-11T05:59:28.038Z,20.441998741610767
2023-09-11T06:02:48.130Z,20.4374029991611
2023-09-11T06:11:43.646Z,20.441861105285223
2023-09-11T06:15:03.842Z,20.45588690226509
2023-09-11T06:18:23.489Z,20.456609165268446
2023-09-11T06:21:42.924Z,20.456594746224805
2023-09-11T06:29:44.182Z,20.66788747902684
2023-09-11T06:33:04.518Z,20.723851719798663
2023-09-11T06:36:23.815Z,20.680261640100667
2023-09-11T06:39:43.602Z,20.60279860528523
2023-09-11T06:43:03.810Z,20.560781512164414
2023-09-11T06:46:23.906Z,20.532836094798636
2023-09-11T06:49:43.768Z,20.539074297399306
2023-09-11T06:53:03.895Z,20.548475513842266
2023-09-11T06:56:23.740Z,20.543750000000006
2023-09-11T06:59:43.454Z,20.541490142617437
2023-09-11T07:04:01.266Z,20.529336199664414
2023-09-11T07:07:20.835Z,20.51613359899328
2023-09-11T07:10:41.942Z,20.519805211828835
2023-09-11T07:16:42.704Z,20.54381816275166
2023-09-11T07:20:02.382Z,20.568696256291947
2023-09-11T07:23:22.472Z,20.58751048657717
2023-09-11T07:26:42.011Z,20.613635171979865
2023-09-11T07:30:01.060Z,20.645249580536927
2023-09-11T07:34:24.708Z,20.7290137374161
2023-09-11T07:37:45.149Z,20.802928376677865
2023-09-11T07:41:05.072Z,21.207813810822138
2023-09-11T07:44:24.880Z,22.409677799916135
2023-09-11T07:47:44.374Z,22.030664062500016
2023-09-11T07:51:03.945Z,22.56755977348993
2023-09-11T07:54:23.387Z,22.621085885067096
2023-09-11T07:57:42.872Z,21.46075267407719
2023-09-11T08:01:02.656Z,21.104838244546954
2023-09-11T08:07:48.137Z,21.030525115352315
2023-09-11T08:11:08.032Z,21.036986157718115
2023-09-11T08:14:28.029Z,21.043191589765087
2023-09-11T08:17:48.313Z,21.045907613255018
2023-09-11T08:21:08.034Z,21.056282770553693
2023-09-11T08:24:27.669Z,21.065777055369097
2023-09-11T08:27:47.644Z,21.09234217701342
2023-09-11T08:31:06.787Z,21.118970218120815
2023-09-11T08:34:26.409Z,21.214194893036904
2023-09-11T08:37:46.630Z,21.69151766988254
2023-09-11T08:42:38.341Z,21.52721397860741
2023-09-11T08:45:58.571Z,21.652667523070466
2023-09-11T08:49:17.384Z,21.550976562499976
2023-09-11T08:52:36.670Z,21.515486052852346
2023-09-11T08:55:56.941Z,21.56318687080537
2023-09-11T08:59:17.600Z,21.593402632130868
2023-09-11T09:03:59.209Z,21.591867659395973
2023-09-11T09:07:18.744Z,21.63790766568793
2023-09-11T09:10:38.201Z,21.713266830956368
2023-09-11T09:13:58.094Z,21.706278838087247
2023-09-11T09:17:17.970Z,21.708382707634225
2023-09-11T09:22:54.955Z,21.799124370805384
2023-09-11T09:26:15.856Z,21.828616558305377
2023-09-11T09:29:50.817Z,21.793590079698003
2023-09-11T09:33:10.696Z,21.788070207634263
2023-09-11T09:36:30.784Z,21.848091442953027
2023-09-11T09:39:50.773Z,21.901732906879207
2023-09-11T09:43:10.347Z,21.93239828020133
2023-09-11T09:49:01.695Z,22.010031721895942
2023-09-11T09:52:21.255Z,21.99802721266777
2023-09-11T09:59:51.155Z,22.071894662332223
2023-09-11T10:05:01.637Z,22.00999764052014
2023-09-11T10:08:21.263Z,22.041629089765088
2023-09-11T10:11:40.746Z,22.15002883808726
2023-09-11T10:15:00.747Z,22.079682256711436
2023-09-11T10:18:19.960Z,22.070092281879205
2023-09-11T10:21:39.974Z,22.06039350880874
2023-09-11T10:26:26.791Z,22.086592911073833
2023-09-11T10:29:46.935Z,22.12062447567117
2023-09-11T10:33:07.029Z,22.13080169882553
2023-09-11T10:38:12.124Z,22.135729079278562
2023-09-11T10:42:23.322Z,22.15589345637585
2023-09-11T10:45:57.743Z,22.15742973993291
2023-09-11T10:49:17.098Z,22.177482697147656
2023-09-11T10:53:12.527Z,22.212544567953035
2023-09-11T10:56:31.796Z,22.257119075083878
2023-09-11T10:59:51.280Z,22.31155489723153
2023-09-11T11:03:10.895Z,22.395357067953018
2023-09-11T11:06:30.842Z,22.464417732802023
2023-09-11T11:09:51.094Z,22.518879771392626
2023-09-11T11:13:11.005Z,22.55759228187919
2023-09-11T11:16:30.718Z,22.58779362416109
2023-09-11T11:21:30.717Z,22.629906407298673
2023-09-11T11:24:49.581Z,22.663619442114108
2023-09-11T11:28:09.351Z,22.690868812919472
2023-09-11T11:32:49.734Z,22.713812132969814
2023-09-11T11:36:09.962Z,22.724347210570485
2023-09-11T11:39:29.400Z,22.74400692114095
2023-09-11T11:42:48.991Z,22.762935192952988
2023-09-11T11:46:08.451Z,22.79769557466441
2023-09-11T11:49:28.041Z,22.82277291317111
2023-09-11T11:52:47.993Z,22.84025665897648
2023-09-11T11:57:39.754Z,22.90504928691275
2023-09-11T12:00:59.535Z,22.913214398070483
2023-09-11T12:04:32.129Z,22.930620805369156
2023-09-11T12:07:58.451Z,22.958538695469812
2023-09-11T12:11:21.218Z,22.9405057151846
2023-09-11T12:14:40.617Z,22.956437447567147
2023-09-11T12:18:00.266Z,22.984939964345635
2023-09-11T12:22:06.729Z,23.002600671140968
2023-09-11T12:25:27.971Z,23.009751205956398
2023-09-11T12:28:48.017Z,23.027388317953026
2023-09-11T12:32:08.026Z,23.074943634647678
2023-09-11T12:35:27.906Z,23.1090368078859
2023-09-11T12:38:46.876Z,23.12605652265099
2023-09-11T12:42:06.475Z,23.144562709731524
2023-09-11T12:45:25.200Z,23.12994048867447
2023-09-11T12:48:45.768Z,23.155886902265085
2023-09-11T12:52:05.591Z,23.185869337248302
2023-09-11T12:55:25.261Z,23.193325293624152
2023-09-11T12:58:44.590Z,23.19172215813758
2023-09-11T13:02:04.085Z,23.191757550335574
2023-09-11T13:06:48.479Z,23.179357172818776
2023-09-11T13:13:05.405Z,23.139809668624153
2023-09-11T13:16:24.313Z,23.147504194630862
2023-09-11T13:19:43.852Z,23.145669043624157
2023-09-11T13:23:03.324Z,23.163586671560385
2023-09-11T13:26:22.795Z,23.162355809563735
2023-09-11T13:29:42.535Z,23.152967701342266
2023-09-11T13:33:02.644Z,23.158855914429523
2023-09-11T13:36:21.437Z,23.171303481543628
2023-09-11T13:39:40.911Z,23.170458001258375
2023-09-11T13:44:29.664Z,23.186138055788586
2023-09-11T13:47:49.434Z,23.198164848993272
2023-09-11T13:51:09.278Z,23.21001992449665
2023-09-11T13:54:28.291Z,23.211301908557044
2023-09-11T14:00:33.153Z,23.213429372902684
2023-09-11T14:03:53.128Z,23.2042863884228
2023-09-11T14:07:12.407Z,23.206156931627486
2023-09-11T14:12:21.302Z,23.206113674496628
2023-09-11T14:15:40.809Z,23.212945679530193
2023-09-11T14:21:19.996Z,23.206838559144295
2023-09-11T14:24:39.141Z,23.212817218959728
2023-09-11T14:27:59.213Z,23.218048710150985
2023-09-11T14:31:18.706Z,23.21387505243288
2023-09-11T14:34:38.896Z,23.21676017197985
2023-09-11T14:37:57.950Z,23.22894950713086
2023-09-11T14:41:17.545Z,23.21867003984899
2023-09-11T14:44:37.306Z,23.22389235528522
2023-09-11T14:47:57.480Z,23.217024958053692
2023-09-11T14:51:16.900Z,23.219872063758377
2023-09-11T14:54:51.227Z,23.230053219379183
2023-09-11T14:58:13.544Z,23.224795511744958
2023-09-11T15:01:33.413Z,23.23756947357381
2023-09-11T15:04:53.078Z,23.253047661493294
2023-09-11T15:08:13.290Z,23.25404257550336
2023-09-11T15:11:32.394Z,23.24658399748319
2023-09-11T15:14:52.180Z,23.24893692323824
2023-09-11T15:18:12.399Z,23.239911912751676
2023-09-11T15:21:32.319Z,23.227455169882532
2023-09-11T15:24:52.419Z,23.213553901006716
2023-09-11T15:28:12.098Z,23.219478817114098
2023-09-11T15:34:26.769Z,23.248039010067096
2023-09-11T15:37:46.491Z,23.248040320889242
2023-09-11T15:41:05.824Z,23.232604079278506
2023-09-11T15:44:25.730Z,23.219564020553683
2023-09-11T15:47:45.497Z,23.23144924496645
2023-09-11T15:51:05.379Z,23.234146916946315
2023-09-11T15:54:25.004Z,23.233326342281877
2023-09-11T15:58:32.551Z,23.233450870385898
2023-09-11T16:01:52.133Z,23.219499790268458
2023-09-11T16:07:03.117Z,23.221412279781866
2023-09-11T16:10:22.692Z,23.217706585570472
2023-09-11T16:13:41.473Z,23.220081795302008
2023-09-11T16:17:01.532Z,23.227810402684547
2023-09-11T16:20:20.909Z,23.22022074244966
2023-09-11T16:23:40.284Z,23.223101929530184
2023-09-11T16:26:59.178Z,23.217441799496648
2023-09-11T16:30:18.744Z,23.211818372483215
2023-09-11T16:43:03.055Z,23.415092806208076
2023-09-11T16:46:22.825Z,23.435300440436258
2023-09-11T16:49:42.184Z,23.421525010486597
2023-09-11T16:53:02.278Z,23.417991033976527
2023-09-11T16:56:21.459Z,23.426025062919493
2023-09-11T16:59:41.336Z,23.448639366610752
2023-09-11T17:03:01.697Z,23.434313391359083
2023-09-11T17:06:21.371Z,23.418131291946317
2023-09-11T17:09:41.292Z,23.432935717281897
2023-09-11T17:13:01.615Z,23.45011797399329
2023-09-11T17:16:21.107Z,23.448230390100697
2023-09-11T17:19:40.779Z,23.414332529362415
2023-09-11T17:23:00.669Z,23.38336828859061
2023-09-11T17:26:28.805Z,23.377009490352346
2023-09-11T17:29:48.964Z,23.38119494546982
2023-09-11T17:33:10.604Z,23.39592989723155
2023-09-11T17:36:32.306Z,23.374064072986588
2023-09-11T17:39:51.924Z,23.31341757550335
2023-09-11T17:43:11.200Z,23.290584364513418
2023-09-11T17:46:30.987Z,23.273373269714785
2023-09-11T17:49:51.050Z,23.232618498322143
2023-09-11T17:53:10.328Z,23.2077797294463
2023-09-11T17:56:29.510Z,23.194487992869135
2023-09-11T17:59:48.720Z,23.172827967701338
2023-09-11T18:03:08.648Z,23.16601300335568
2023-09-11T18:06:28.387Z,23.159862625838908
2023-09-11T18:12:04.217Z,23.14421665268454
2023-09-11T18:15:24.223Z,23.128494651845628
2023-09-11T18:21:20.723Z,23.120561556208035
2023-09-11T18:24:40.230Z,23.120151268875816
2023-09-11T18:28:00.454Z,23.11585439387583
2023-09-11T18:33:54.260Z,23.10223364093957
2023-09-11T18:37:13.782Z,23.100916264681196
2023-09-11T18:40:33.364Z,23.097291841442946
2023-09-11T18:43:53.365Z,23.093297766359083
2023-09-11T18:47:13.124Z,23.08870726719803
2023-09-11T18:50:32.189Z,23.07792444421142
2023-09-11T18:53:52.296Z,23.070994127516798
2023-09-11T18:57:11.073Z,23.06132026006711
2023-09-11T19:00:30.861Z,23.050481071728218
2023-09-11T19:06:55.226Z,23.04395448825505
2023-09-11T19:10:14.391Z,23.03988831795303
2023-09-11T19:13:34.085Z,23.03650639681208
2023-09-11T19:16:59.381Z,23.03753408137583
2023-09-11T19:20:18.858Z,23.04366086409398
2023-09-11T19:24:00.913Z,23.0338296979866
2023-09-11T19:29:00.072Z,23.034245228607396
2023-09-11T19:38:46.040Z,23.03725487625842
2023-09-11T19:51:59.296Z,23.04872588087251
2023-09-11T19:57:08.773Z,23.06199140100672
2023-09-11T20:03:07.310Z,23.04924234479868
2023-09-11T20:06:27.591Z,23.030247221057078
2023-09-11T20:09:47.694Z,23.027502359479872
2023-09-11T20:13:07.219Z,23.049412751677856
2023-09-11T20:16:26.016Z,23.03908740562082
2023-09-11T20:19:46.014Z,23.033841495385914
2023-09-11T20:23:06.140Z,23.0169620385906
2023-09-11T20:26:25.945Z,23.00992685612418
2023-09-11T20:31:46.210Z,22.99140625000004
2023-09-11T20:35:47.220Z,22.97729524958055
2023-09-11T20:39:07.503Z,22.975338192114112
2023-09-11T20:42:27.695Z,22.970560245385936
2023-09-11T20:45:47.323Z,22.957143980704707
2023-09-11T20:49:07.227Z,22.945773909396006
2023-09-11T20:52:26.605Z,22.935785444630852
2023-09-11T20:55:45.980Z,22.92899538590606
2023-09-11T20:59:05.852Z,22.921083263422833
2023-09-11T21:03:45.338Z,22.91830432046977
2023-09-11T21:07:57.212Z,22.899769295301986
2023-09-11T21:11:16.597Z,22.88652999161073
2023-09-11T21:14:36.274Z,22.88476562499997
2023-09-11T21:17:56.527Z,22.877313601090595
2023-09-11T21:21:16.409Z,22.87433803481544
2023-09-11T21:24:44.320Z,22.880839712667797
2023-09-11T21:28:03.285Z,22.87205327181206
2023-09-11T21:31:23.174Z,22.855531669463055
2023-09-11T21:34:43.155Z,22.837188024328853
2023-09-11T21:38:03.235Z,22.824174182046978
2023-09-11T21:45:12.639Z,22.79137479026845
2023-09-11T21:53:05.500Z,22.80791736577178
2023-09-11T21:56:25.074Z,22.795773909395965
2023-09-11T21:59:45.179Z,22.77931391568792
2023-09-11T22:03:05.499Z,22.770652002936213
2023-09-11T22:06:46.026Z,22.752063234060422
2023-09-11T22:10:05.895Z,22.746578754194626
2023-09-11T22:13:25.165Z,22.737126415687936
2023-09-11T22:16:44.600Z,22.715104603607394
2023-09-11T22:20:05.755Z,22.70260591442955
2023-09-11T22:23:40.961Z,22.685718592701356
2023-09-11T22:30:19.174Z,22.669759333053705
2023-09-11T22:36:23.597Z,22.673062604865784
2023-09-11T22:39:43.162Z,22.67340472944632
2023-09-11T22:43:03.454Z,22.669026583473165
2023-09-11T22:46:23.478Z,22.642287122483236
2023-09-11T22:49:43.100Z,22.63417575503356
2023-09-11T22:53:03.179Z,22.645465866191298
2023-09-11T22:56:23.072Z,22.652494494546993
2023-09-11T22:59:42.558Z,22.656423028523502
2023-09-11T23:03:02.126Z,22.64804949664432
2023-09-11T23:06:22.247Z,22.64165661703021
2023-09-11T23:09:41.683Z,22.6342124580537
2023-09-11T23:13:01.381Z,22.63538302223154
2023-09-11T23:16:20.871Z,22.625942481124174
2023-09-11T23:19:40.621Z,22.621249737835576
2023-09-11T23:23:00.719Z,22.614864723154376
2023-09-11T23:26:19.582Z,22.60384201971478
2023-09-11T23:29:39.054Z,22.598137321728196
2023-09-11T23:32:59.456Z,22.59661676803691
2023-09-11T23:38:33.059Z,22.597922346895977
2023-09-11T23:41:53.664Z,22.596686241610737
2023-09-11T23:45:13.078Z,22.59134726300337
2023-09-11T23:48:32.961Z,22.58789062500001
2023-09-11T23:51:53.010Z,22.591302695050338
2023-09-11T23:55:12.548Z,22.59360974203021
2023-09-11T23:58:32.381Z,22.600878250838935
